Time,TemperatureF,DewpointF,PressureIn,WindDirection,WindDirectionDegrees,WindSpeedMPH,WindSpeedGustMPH,Humidity,HourlyPrecipIn,Conditions,Clouds,dailyrainin,SoftwareType,DateUTC
2013-04-25 00:01:00,58.7,53.2,29.89,SSE,166,4.0,5.0,82,0.00,,OVC095,0.00,VWS V14.01,2013-04-25 04:01:00,
2013-04-25 00:02:00,58.8,53.3,29.88,SE,144,3.0,5.0,82,0.00,,OVC095,0.00,VWS V14.01,2013-04-25 04:02:00,
2013-04-25 00:07:00,58.8,53.7,29.89,SSE,156,1.0,7.0,83,0.00,,OVC095,0.00,VWS V14.01,2013-04-25 04:07:00,
2013-04-25 00:12:00,58.9,53.8,29.89,South,180,2.0,8.0,83,0.00,,OVC095,0.00,VWS V14.01,2013-04-25 04:12:00,
2013-04-25 00:17:00,58.9,53.8,29.90,South,190,1.0,8.0,83,0.00,,OVC095,0.00,VWS V14.01,2013-04-25 04:17:00,
2013-04-25 00:22:00,59.1,54.0,29.89,SE,143,1.0,8.0,83,0.00,,OVC095,0.00,VWS V14.01,2013-04-25 04:22:00,
2013-04-25 00:27:00,59.3,54.2,29.89,SSW,210,1.0,8.0,83,0.00,,OVC095,0.00,VWS V14.01,2013-04-25 04:27:00,
2013-04-25 00:32:00,59.3,54.2,29.90,SSW,212,2.0,6.0,83,0.00,,OVC095,0.00,VWS V14.01,2013-04-25 04:32:00,
2013-04-25 00:37:00,59.4,54.2,29.90,SW,227,2.0,6.0,83,0.00,,OVC095,0.00,VWS V14.01,2013-04-25 04:37:00,
2013-04-25 00:42:00,59.5,54.3,29.90,SSW,199,1.0,6.0,83,0.00,,OVC095,0.00,VWS V14.01,2013-04-25 04:42:00,
2013-04-25 00:47:00,59.7,54.5,29.90,SSW,194,1.0,6.0,83,0.00,,OVC095,0.00,VWS V14.01,2013-04-25 04:47:00,
2013-04-25 00:52:00,59.9,54.7,29.91,SW,214,0.0,6.0,83,0.00,,OVC095,0.00,VWS V14.01,2013-04-25 04:52:00,
2013-04-25 00:57:00,60.1,54.9,29.92,West,267,4.0,6.0,83,0.00,,OVC095,0.00,VWS V14.01,2013-04-25 04:57:00,
2013-04-25 01:02:00,60.3,55.1,29.92,West,272,4.0,5.0,83,0.00,,OVC047,0.00,VWS V14.01,2013-04-25 05:02:00,
2013-04-25 01:07:00,60.7,54.2,29.93,NNW,343,3.0,17.0,79,0.00,,OVC047,0.00,VWS V14.01,2013-04-25 05:07:00,
2013-04-25 01:12:00,60.6,51.5,29.93,NW,312,9.0,17.0,72,0.00,,OVC047,0.00,VWS V14.01,2013-04-25 05:12:00,
2013-04-25 01:17:00,60.3,50.5,29.94,NNE,21,6.0,17.0,70,0.00,,OVC047,0.00,VWS V14.01,2013-04-25 05:17:00,
2013-04-25 01:22:00,60.2,50.0,29.94,NNW,335,10.0,17.0,69,0.00,,OVC047,0.00,VWS V14.01,2013-04-25 05:22:00,
2013-04-25 01:27:00,59.9,49.3,29.95,WNW,296,13.0,17.0,68,0.00,,OVC047,0.00,VWS V14.01,2013-04-25 05:27:00,
2013-04-25 01:32:00,59.7,47.1,29.95,WNW,290,11.0,16.0,63,0.00,,OVC047,0.00,VWS V14.01,2013-04-25 05:32:00,
2013-04-25 01:37:00,59.5,46.1,29.96,SSW,207,2.0,21.0,61,0.00,,OVC047,0.00,VWS V14.01,2013-04-25 05:37:00,
2013-04-25 01:43:00,59.2,44.0,29.96,NW,323,16.0,21.0,57,0.00,,OVC047,0.00,VWS V14.01,2013-04-25 05:43:00,
2013-04-25 01:48:00,58.8,42.2,29.96,NNW,335,4.0,21.0,54,0.00,,OVC047,0.00,VWS V14.01,2013-04-25 05:48:00,
2013-04-25 01:53:00,58.3,41.3,29.96,West,265,2.0,21.0,53,0.00,,OVC047,0.00,VWS V14.01,2013-04-25 05:53:00,
2013-04-25 01:58:00,57.8,40.8,29.96,NNW,329,8.0,21.0,53,0.00,,OVC047,0.00,VWS V14.01,2013-04-25 05:58:00,
2013-04-25 02:03:00,57.1,40.2,29.97,WNW,290,2.0,14.0,53,0.00,,OVC110,0.00,VWS V14.01,2013-04-25 06:03:00,
2013-04-25 02:08:00,56.7,40.3,29.97,NW,309,2.0,14.0,54,0.00,,OVC110,0.00,VWS V14.01,2013-04-25 06:08:00,
2013-04-25 02:13:00,56.4,40.9,29.98,West,272,6.0,14.0,56,0.00,,OVC110,0.00,VWS V14.01,2013-04-25 06:13:00,
2013-04-25 02:18:00,56.1,41.1,29.98,WSW,255,5.0,14.0,57,0.00,,OVC110,0.00,VWS V14.01,2013-04-25 06:18:00,
2013-04-25 02:23:00,55.8,41.3,29.98,WNW,288,7.0,14.0,58,0.00,,OVC110,0.00,VWS V14.01,2013-04-25 06:23:00,
2013-04-25 02:28:00,55.3,40.8,29.99,NW,324,6.0,14.0,58,0.00,,OVC110,0.00,VWS V14.01,2013-04-25 06:28:00,
2013-04-25 02:33:00,54.9,40.4,29.99,West,269,5.0,12.0,58,0.00,,OVC110,0.00,VWS V14.01,2013-04-25 06:33:00,
2013-04-25 02:38:00,54.4,40.4,29.99,WNW,294,10.0,18.0,59,0.00,,OVC110,0.00,VWS V14.01,2013-04-25 06:38:00,
2013-04-25 02:43:00,53.9,39.9,29.99,NW,323,8.0,18.0,59,0.00,,OVC110,0.00,VWS V14.01,2013-04-25 06:43:00,
2013-04-25 02:48:00,53.5,39.5,30.00,WNW,286,6.0,18.0,59,0.00,,OVC110,0.00,VWS V14.01,2013-04-25 06:48:00,
2013-04-25 02:53:00,53.1,38.7,30.00,West,261,10.0,23.0,58,0.00,,OVC110,0.00,VWS V14.01,2013-04-25 06:53:00,
2013-04-25 02:58:00,52.8,38.5,30.00,West,272,10.0,23.0,58,0.00,,OVC110,0.00,VWS V14.01,2013-04-25 06:58:00,
2013-04-25 03:03:00,52.6,38.7,30.00,West,276,9.0,12.0,59,0.00,,SCT110,0.00,VWS V14.01,2013-04-25 07:03:00,
2013-04-25 03:08:00,52.3,38.0,30.01,North,350,10.0,19.0,58,0.00,,SCT110,0.00,VWS V14.01,2013-04-25 07:08:00,
2013-04-25 03:13:00,52.1,37.8,30.02,NW,326,7.0,19.0,58,0.00,,SCT110,0.00,VWS V14.01,2013-04-25 07:13:00,
2013-04-25 03:18:00,51.9,37.6,30.02,WNW,300,3.0,19.0,58,0.00,,SCT110,0.00,VWS V14.01,2013-04-25 07:18:00,
2013-04-25 03:23:00,51.7,37.4,30.01,NW,322,6.0,19.0,58,0.00,,SCT110,0.00,VWS V14.01,2013-04-25 07:23:00,
2013-04-25 03:28:00,51.5,37.2,30.02,NW,309,7.0,21.0,58,0.00,,SCT110,0.00,VWS V14.01,2013-04-25 07:28:00,
2013-04-25 03:33:00,51.2,37.0,30.02,NW,317,5.0,18.0,58,0.00,,SCT110,0.00,VWS V14.01,2013-04-25 07:33:00,
2013-04-25 03:38:00,50.9,37.1,30.02,West,279,4.0,18.0,59,0.00,,SCT110,0.00,VWS V14.01,2013-04-25 07:38:00,
2013-04-25 03:43:00,50.7,36.9,30.03,West,281,9.0,18.0,59,0.00,,SCT110,0.00,VWS V14.01,2013-04-25 07:43:00,
2013-04-25 03:48:00,50.5,36.7,30.03,NW,316,8.0,18.0,59,0.00,,SCT110,0.00,VWS V14.01,2013-04-25 07:48:00,
2013-04-25 03:53:00,50.2,36.4,30.04,NW,306,4.0,18.0,59,0.00,,SCT110,0.00,VWS V14.01,2013-04-25 07:53:00,
2013-04-25 03:58:00,50.1,36.8,30.05,West,265,6.0,18.0,60,0.00,,SCT110,0.00,VWS V14.01,2013-04-25 07:58:00,
2013-04-25 04:03:00,50.0,36.2,30.04,NW,316,10.0,10.0,59,0.00,,OVC080,0.00,VWS V14.01,2013-04-25 08:03:00,
2013-04-25 04:08:00,49.9,36.2,30.04,West,261,4.0,12.0,59,0.00,,OVC080,0.00,VWS V14.01,2013-04-25 08:08:00,
2013-04-25 04:13:00,49.8,36.1,30.04,WNW,286,6.0,15.0,59,0.00,,OVC080,0.00,VWS V14.01,2013-04-25 08:13:00,
2013-04-25 04:18:00,49.7,36.0,30.05,WNW,297,6.0,15.0,59,0.00,,OVC080,0.00,VWS V14.01,2013-04-25 08:18:00,
2013-04-25 04:23:00,49.6,35.5,30.06,West,280,13.0,15.0,58,0.00,,OVC080,0.00,VWS V14.01,2013-04-25 08:23:00,
2013-04-25 04:28:00,49.5,35.3,30.07,WNW,297,8.0,16.0,58,0.00,,OVC080,0.00,VWS V14.01,2013-04-25 08:28:00,
2013-04-25 04:33:00,49.4,35.7,30.07,WNW,296,6.0,7.0,59,0.00,,OVC080,0.00,VWS V14.01,2013-04-25 08:33:00,
2013-04-25 04:38:00,49.3,36.0,30.08,WNW,302,3.0,10.0,60,0.00,,OVC080,0.00,VWS V14.01,2013-04-25 08:38:00,
2013-04-25 04:43:00,49.1,35.8,30.08,SW,234,2.0,10.0,60,0.00,,OVC080,0.00,VWS V14.01,2013-04-25 08:43:00,
2013-04-25 04:48:00,49.0,35.7,30.08,WNW,302,5.0,10.0,60,0.00,,OVC080,0.00,VWS V14.01,2013-04-25 08:48:00,
2013-04-25 04:53:00,48.9,35.6,30.08,WNW,302,4.0,11.0,60,0.00,,OVC080,0.00,VWS V14.01,2013-04-25 08:53:00,
2013-04-25 04:58:00,48.8,35.5,30.08,NW,318,4.0,11.0,60,0.00,,OVC080,0.00,VWS V14.01,2013-04-25 08:58:00,
2013-04-25 05:03:00,48.8,35.1,30.08,NW,313,4.0,9.0,59,0.00,,OVC100,0.00,VWS V14.01,2013-04-25 09:03:00,
2013-04-25 05:08:00,48.8,35.1,30.09,NW,315,1.0,12.0,59,0.00,,OVC100,0.00,VWS V14.01,2013-04-25 09:08:00,
2013-04-25 05:13:00,48.8,35.1,30.09,WNW,301,4.0,12.0,59,0.00,,OVC100,0.00,VWS V14.01,2013-04-25 09:13:00,
2013-04-25 05:18:00,48.7,35.0,30.09,WNW,284,4.0,12.0,59,0.00,,OVC100,0.00,VWS V14.01,2013-04-25 09:18:00,
2013-04-25 05:23:00,48.7,35.0,30.10,NW,321,4.0,12.0,59,0.00,,OVC100,0.00,VWS V14.01,2013-04-25 09:23:00,
2013-04-25 05:29:00,48.6,34.9,30.11,West,275,5.0,12.0,59,0.00,,OVC100,0.00,VWS V14.01,2013-04-25 09:29:00,
2013-04-25 05:34:00,48.5,34.4,30.11,NW,315,9.0,10.0,58,0.00,,OVC100,0.00,VWS V14.01,2013-04-25 09:34:00,
2013-04-25 05:39:00,48.4,34.8,30.11,NNW,346,7.0,11.0,59,0.00,,OVC100,0.00,VWS V14.01,2013-04-25 09:39:00,
2013-04-25 05:44:00,48.2,34.6,30.12,West,279,7.0,11.0,59,0.00,,OVC100,0.00,VWS V14.01,2013-04-25 09:44:00,
2013-04-25 05:49:00,48.1,34.5,30.13,NW,323,9.0,11.0,59,0.00,,OVC100,0.00,VWS V14.01,2013-04-25 09:49:00,
2013-04-25 05:54:00,47.9,34.7,30.13,NNW,327,6.0,11.0,60,0.00,,OVC100,0.00,VWS V14.01,2013-04-25 09:54:00,
2013-04-25 05:59:00,47.7,34.5,30.13,NW,306,6.0,11.0,60,0.00,,OVC100,0.00,VWS V14.01,2013-04-25 09:59:00,
2013-04-25 06:04:00,47.4,34.6,30.13,WNW,290,5.0,10.0,61,0.00,,FEW110,0.00,VWS V14.01,2013-04-25 10:04:00,
2013-04-25 06:09:00,47.2,34.5,30.14,WNW,290,3.0,11.0,61,0.00,,FEW110,0.00,VWS V14.01,2013-04-25 10:09:00,
2013-04-25 06:14:00,47.0,34.3,30.14,NW,320,8.0,11.0,61,0.00,,FEW110,0.00,VWS V14.01,2013-04-25 10:14:00,
2013-04-25 06:19:00,46.8,34.1,30.15,NNW,336,5.0,11.0,61,0.00,,FEW110,0.00,VWS V14.01,2013-04-25 10:19:00,
2013-04-25 06:24:00,46.7,34.4,30.15,NW,306,6.0,11.0,62,0.00,,FEW110,0.00,VWS V14.01,2013-04-25 10:24:00,
2013-04-25 06:29:00,46.5,33.8,30.15,West,265,6.0,12.0,61,0.00,,FEW110,0.00,VWS V14.01,2013-04-25 10:29:00,
2013-04-25 06:34:00,46.4,33.3,30.16,NNE,18,3.0,19.0,60,0.00,,FEW110,0.00,VWS V14.01,2013-04-25 10:34:00,
2013-04-25 06:39:00,46.3,32.8,30.16,NNW,329,7.0,19.0,59,0.00,,FEW110,0.00,VWS V14.01,2013-04-25 10:39:00,
2013-04-25 06:44:00,46.1,32.6,30.17,NW,321,5.0,19.0,59,0.00,,FEW110,0.00,VWS V14.01,2013-04-25 10:44:00,
2013-04-25 06:49:00,46.0,32.5,30.17,WNW,289,6.0,19.0,59,0.00,,FEW110,0.00,VWS V14.01,2013-04-25 10:49:00,
2013-04-25 06:54:00,45.9,32.4,30.18,SW,234,4.0,19.0,59,0.00,,FEW110,0.00,VWS V14.01,2013-04-25 10:54:00,
2013-04-25 06:59:00,45.9,32.4,30.18,NW,323,8.0,19.0,59,0.00,,FEW110,0.00,VWS V14.01,2013-04-25 10:59:00,
2013-04-25 07:04:00,45.9,32.4,30.18,NW,325,10.0,14.0,59,0.00,,CLR,0.00,VWS V14.01,2013-04-25 11:04:00,
2013-04-25 07:09:00,45.9,32.4,30.18,NNW,336,9.0,15.0,59,0.00,,CLR,0.00,VWS V14.01,2013-04-25 11:09:00,
2013-04-25 07:14:00,45.9,32.4,30.19,NNW,327,7.0,15.0,59,0.00,,CLR,0.00,VWS V14.01,2013-04-25 11:14:00,
2013-04-25 07:19:00,46.0,32.5,30.19,NW,307,5.0,15.0,59,0.00,,CLR,0.00,VWS V14.01,2013-04-25 11:19:00,
2013-04-25 07:24:00,46.1,32.6,30.19,WNW,282,5.0,15.0,59,0.00,,CLR,0.00,VWS V14.01,2013-04-25 11:24:00,
2013-04-25 07:29:00,46.2,32.7,30.20,NW,317,6.0,15.0,59,0.00,,CLR,0.00,VWS V14.01,2013-04-25 11:29:00,
2013-04-25 07:34:00,46.3,32.8,30.20,WSW,252,6.0,13.0,59,0.00,,CLR,0.00,VWS V14.01,2013-04-25 11:34:00,
2013-04-25 07:39:00,46.5,33.0,30.20,WSW,252,5.0,13.0,59,0.00,,CLR,0.00,VWS V14.01,2013-04-25 11:39:00,
2013-04-25 07:44:00,46.6,32.6,30.20,WNW,283,5.0,16.0,58,0.00,,CLR,0.00,VWS V14.01,2013-04-25 11:44:00,
2013-04-25 07:49:00,46.7,32.7,30.21,WNW,297,4.0,16.0,58,0.00,,CLR,0.00,VWS V14.01,2013-04-25 11:49:00,
2013-04-25 07:54:00,46.9,32.9,30.21,WSW,250,1.0,17.0,58,0.00,,CLR,0.00,VWS V14.01,2013-04-25 11:54:00,
2013-04-25 07:59:00,47.1,32.7,30.21,NW,308,4.0,5.0,57,0.00,,CLR,0.00,VWS V14.01,2013-04-25 11:59:00,
2013-04-25 08:04:00,47.2,32.3,30.21,North,355,3.0,17.0,56,0.00,,CLR,0.00,VWS V14.01,2013-04-25 12:04:00,
2013-04-25 08:10:00,47.2,32.3,30.21,WNW,301,8.0,17.0,56,0.00,,CLR,0.00,VWS V14.01,2013-04-25 12:10:00,
2013-04-25 08:15:00,47.5,32.6,30.21,WNW,296,9.0,17.0,56,0.00,,CLR,0.00,VWS V14.01,2013-04-25 12:15:00,
2013-04-25 08:20:00,47.8,32.4,30.21,WNW,293,6.0,17.0,55,0.00,,CLR,0.00,VWS V14.01,2013-04-25 12:20:00,
2013-04-25 08:25:00,48.2,33.3,30.22,WNW,301,3.0,17.0,56,0.00,,CLR,0.00,VWS V14.01,2013-04-25 12:25:00,
2013-04-25 08:30:00,48.8,32.9,30.21,WNW,294,8.0,9.0,54,0.00,,CLR,0.00,VWS V14.01,2013-04-25 12:30:00,
2013-04-25 08:35:00,49.2,33.3,30.22,NNW,340,4.0,9.0,54,0.00,,CLR,0.00,VWS V14.01,2013-04-25 12:35:00,
2013-04-25 08:40:00,49.7,33.3,30.22,NW,312,12.0,12.0,53,0.00,,CLR,0.00,VWS V14.01,2013-04-25 12:40:00,
2013-04-25 08:45:00,50.0,32.6,30.22,WNW,298,3.0,14.0,51,0.00,,CLR,0.00,VWS V14.01,2013-04-25 12:45:00,
2013-04-25 08:50:00,49.9,33.0,30.22,NNW,327,6.0,14.0,52,0.00,,CLR,0.00,VWS V14.01,2013-04-25 12:50:00,
2013-04-25 08:55:00,50.3,32.9,30.22,NW,323,10.0,14.0,51,0.00,,CLR,0.00,VWS V14.01,2013-04-25 12:55:00,
2013-04-25 09:00:00,50.7,33.2,30.22,WNW,286,5.0,13.0,51,0.00,,CLR,0.00,VWS V14.01,2013-04-25 13:00:00,
2013-04-25 09:05:00,50.7,32.2,30.22,WNW,294,4.0,13.0,49,0.00,,CLR,0.00,VWS V14.01,2013-04-25 13:05:00,
2013-04-25 09:10:00,50.6,32.7,30.22,WNW,294,5.0,13.0,50,0.00,,CLR,0.00,VWS V14.01,2013-04-25 13:10:00,
2013-04-25 09:15:00,50.6,32.7,30.22,WNW,302,6.0,13.0,50,0.00,,CLR,0.00,VWS V14.01,2013-04-25 13:15:00,
2013-04-25 09:20:00,50.7,31.7,30.22,WNW,284,8.0,13.0,48,0.00,,CLR,0.00,VWS V14.01,2013-04-25 13:20:00,
2013-04-25 09:25:00,50.9,32.4,30.22,WSW,242,2.0,14.0,49,0.00,,CLR,0.00,VWS V14.01,2013-04-25 13:25:00,
2013-04-25 09:30:00,51.1,31.1,30.22,WNW,303,10.0,15.0,46,0.00,,CLR,0.00,VWS V14.01,2013-04-25 13:30:00,
2013-04-25 09:35:00,51.2,31.1,30.22,NW,313,5.0,15.0,46,0.00,,CLR,0.00,VWS V14.01,2013-04-25 13:35:00,
2013-04-25 09:40:00,51.6,31.0,30.22,North,355,4.0,17.0,45,0.00,,CLR,0.00,VWS V14.01,2013-04-25 13:40:00,
2013-04-25 09:45:00,51.8,31.7,30.22,NNW,334,8.0,17.0,46,0.00,,CLR,0.00,VWS V14.01,2013-04-25 13:45:00,
2013-04-25 09:50:00,52.2,32.1,30.22,WNW,288,6.0,17.0,46,0.00,,CLR,0.00,VWS V14.01,2013-04-25 13:50:00,
2013-04-25 09:55:00,52.6,31.3,30.22,WSW,252,3.0,17.0,44,0.00,,CLR,0.00,VWS V14.01,2013-04-25 13:55:00,
2013-04-25 10:00:00,52.6,31.9,30.22,NNW,346,6.0,9.0,45,0.00,,CLR,0.00,VWS V14.01,2013-04-25 14:00:00,
2013-04-25 10:05:00,52.8,32.1,30.22,WNW,284,5.0,10.0,45,0.00,,CLR,0.00,VWS V14.01,2013-04-25 14:05:00,
2013-04-25 10:10:00,53.5,31.6,30.22,NW,310,12.0,13.0,43,0.00,,CLR,0.00,VWS V14.01,2013-04-25 14:10:00,
2013-04-25 10:15:00,53.7,32.3,30.22,West,281,7.0,13.0,44,0.00,,CLR,0.00,VWS V14.01,2013-04-25 14:15:00,
2013-04-25 10:20:00,54.1,31.5,30.22,WNW,289,6.0,13.0,42,0.00,,CLR,0.00,VWS V14.01,2013-04-25 14:20:00,
2013-04-25 10:25:00,54.6,32.0,30.22,NE,47,4.0,13.0,42,0.00,,CLR,0.00,VWS V14.01,2013-04-25 14:25:00,
2013-04-25 10:30:00,55.4,33.3,30.22,West,278,5.0,9.0,43,0.00,,CLR,0.00,VWS V14.01,2013-04-25 14:30:00,
2013-04-25 10:35:00,55.6,31.7,30.22,WSW,253,8.0,11.0,40,0.00,,CLR,0.00,VWS V14.01,2013-04-25 14:35:00,
2013-04-25 10:40:00,55.6,31.7,30.22,WNW,291,7.0,11.0,40,0.00,,CLR,0.00,VWS V14.01,2013-04-25 14:40:00,
2013-04-25 10:45:00,55.6,31.7,30.22,WNW,289,8.0,15.0,40,0.00,,CLR,0.00,VWS V14.01,2013-04-25 14:45:00,
2013-04-25 10:50:00,55.2,31.3,30.22,NNW,346,4.0,15.0,40,0.00,,CLR,0.00,VWS V14.01,2013-04-25 14:50:00,
2013-04-25 10:55:00,55.9,32.6,30.22,NW,311,4.0,15.0,41,0.00,,CLR,0.00,VWS V14.01,2013-04-25 14:55:00,
2013-04-25 11:00:00,56.9,32.2,30.22,WNW,293,9.0,9.0,39,0.00,,CLR,0.00,VWS V14.01,2013-04-25 15:00:00,
2013-04-25 11:05:00,56.7,31.4,30.22,WSW,246,4.0,15.0,38,0.00,,CLR,0.00,VWS V14.01,2013-04-25 15:05:00,
2013-04-25 11:10:00,56.6,32.6,30.22,West,263,3.0,15.0,40,0.00,,CLR,0.00,VWS V14.01,2013-04-25 15:10:00,
2013-04-25 11:15:00,56.8,31.5,30.22,WNW,298,7.0,15.0,38,0.00,,CLR,0.00,VWS V14.01,2013-04-25 15:15:00,
2013-04-25 11:21:00,57.1,31.1,30.23,WNW,287,6.0,15.0,37,0.00,,CLR,0.00,VWS V14.01,2013-04-25 15:21:00,
2013-04-25 11:26:00,57.1,31.1,30.23,SW,235,4.0,15.0,37,0.00,,CLR,0.00,VWS V14.01,2013-04-25 15:26:00,
2013-04-25 11:31:00,56.5,31.9,30.23,WNW,297,5.0,12.0,39,0.00,,CLR,0.00,VWS V14.01,2013-04-25 15:31:00,
2013-04-25 11:36:00,56.8,30.8,30.23,WNW,298,4.0,12.0,37,0.00,,CLR,0.00,VWS V14.01,2013-04-25 15:36:00,
2013-04-25 11:41:00,57.1,30.4,30.23,WNW,294,6.0,12.0,36,0.00,,CLR,0.00,VWS V14.01,2013-04-25 15:41:00,
2013-04-25 11:46:00,57.7,30.3,30.23,NNW,331,5.0,12.0,35,0.00,,CLR,0.00,VWS V14.01,2013-04-25 15:46:00,
2013-04-25 11:51:00,58.4,30.9,30.23,WNW,284,4.0,12.0,35,0.00,,CLR,0.00,VWS V14.01,2013-04-25 15:51:00,
2013-04-25 11:56:00,58.6,30.3,30.23,WNW,293,5.0,14.0,34,0.00,,CLR,0.00,VWS V14.01,2013-04-25 15:56:00,
2013-04-25 12:01:00,58.7,30.4,30.23,SW,222,5.0,8.0,34,0.00,,CLR,0.00,VWS V14.01,2013-04-25 16:01:00,
2013-04-25 12:06:00,57.4,30.0,30.23,WNW,286,6.0,8.0,35,0.00,,CLR,0.00,VWS V14.01,2013-04-25 16:06:00,
2013-04-25 12:11:00,57.8,32.4,30.23,WNW,298,6.0,8.0,38,0.00,,CLR,0.00,VWS V14.01,2013-04-25 16:11:00,
2013-04-25 12:16:00,58.3,31.5,30.23,WNW,298,5.0,9.0,36,0.00,,CLR,0.00,VWS V14.01,2013-04-25 16:16:00,
2013-04-25 12:21:00,58.3,32.8,30.23,West,261,4.0,9.0,38,0.00,,CLR,0.00,VWS V14.01,2013-04-25 16:21:00,
2013-04-25 12:26:00,59.1,32.9,30.23,NW,309,4.0,10.0,37,0.00,,CLR,0.00,VWS V14.01,2013-04-25 16:26:00,
2013-04-25 12:31:00,59.4,31.8,30.23,West,279,5.0,5.0,35,0.00,,CLR,0.00,VWS V14.01,2013-04-25 16:31:00,
2013-04-25 12:36:00,59.6,33.3,30.22,SSW,209,1.0,5.0,37,0.00,,CLR,0.00,VWS V14.01,2013-04-25 16:36:00,
2013-04-25 12:41:00,60.0,32.3,30.22,West,279,5.0,7.0,35,0.00,,CLR,0.00,VWS V14.01,2013-04-25 16:41:00,
2013-04-25 12:46:00,60.4,32.7,30.22,WNW,303,7.0,10.0,35,0.00,,CLR,0.00,VWS V14.01,2013-04-25 16:46:00,
2013-04-25 12:51:00,60.7,32.2,30.21,North,360,3.0,10.0,34,0.00,,CLR,0.00,VWS V14.01,2013-04-25 16:51:00,
2013-04-25 12:56:00,61.5,32.2,30.22,WNW,298,5.0,10.0,33,0.00,,CLR,0.00,VWS V14.01,2013-04-25 16:56:00,
2013-04-25 13:01:00,61.9,32.5,30.22,NW,304,1.0,5.0,33,0.00,,CLR,0.00,VWS V14.01,2013-04-25 17:01:00,
2013-04-25 13:06:00,61.8,31.6,30.21,NNW,329,8.0,10.0,32,0.00,,CLR,0.00,VWS V14.01,2013-04-25 17:06:00,
2013-04-25 13:11:00,62.1,31.9,30.21,WNW,292,3.0,13.0,32,0.00,,CLR,0.00,VWS V14.01,2013-04-25 17:11:00,
2013-04-25 13:16:00,62.2,32.8,30.21,NW,319,1.0,13.0,33,0.00,,CLR,0.00,VWS V14.01,2013-04-25 17:16:00,
2013-04-25 13:21:00,62.7,32.4,30.21,West,265,3.0,13.0,32,0.00,,CLR,0.00,VWS V14.01,2013-04-25 17:21:00,
2013-04-25 13:26:00,62.5,31.5,30.21,WNW,296,5.0,13.0,31,0.00,,CLR,0.00,VWS V14.01,2013-04-25 17:26:00,
2013-04-25 13:31:00,62.1,31.1,30.21,NNE,19,1.0,4.0,31,0.00,,CLR,0.00,VWS V14.01,2013-04-25 17:31:00,
2013-04-25 13:36:00,61.6,30.7,30.21,WNW,293,9.0,10.0,31,0.00,,CLR,0.00,VWS V14.01,2013-04-25 17:36:00,
2013-04-25 13:41:00,61.9,31.7,30.21,NW,307,7.0,10.0,32,0.00,,CLR,0.00,VWS V14.01,2013-04-25 17:41:00,
2013-04-25 13:47:00,62.4,32.9,30.20,NW,322,4.0,10.0,33,0.00,,CLR,0.00,VWS V14.01,2013-04-25 17:47:00,
2013-04-25 13:52:00,63.1,29.5,30.20,WNW,290,12.0,13.0,28,0.00,,CLR,0.00,VWS V14.01,2013-04-25 17:52:00,
2013-04-25 13:57:00,63.5,29.8,30.20,NNW,327,3.0,13.0,28,0.00,,CLR,0.00,VWS V14.01,2013-04-25 17:57:00,
2013-04-25 14:02:00,64.0,31.1,30.20,WNW,294,6.0,11.0,29,0.00,,CLR,0.00,VWS V14.01,2013-04-25 18:02:00,
2013-04-25 14:07:00,64.3,31.4,30.20,NW,308,4.0,11.0,29,0.00,,CLR,0.00,VWS V14.01,2013-04-25 18:07:00,
2013-04-25 14:12:00,64.9,31.0,30.20,NW,308,7.0,11.0,28,0.00,,CLR,0.00,VWS V14.01,2013-04-25 18:12:00,
2013-04-25 14:17:00,65.6,31.6,30.20,NW,305,0.0,11.0,28,0.00,,CLR,0.00,VWS V14.01,2013-04-25 18:17:00,
2013-04-25 14:22:00,65.6,31.6,30.20,West,272,5.0,11.0,28,0.00,,CLR,0.00,VWS V14.01,2013-04-25 18:22:00,
2013-04-25 14:27:00,65.3,29.6,30.20,NNW,334,6.0,11.0,26,0.00,,CLR,0.00,VWS V14.01,2013-04-25 18:27:00,
2013-04-25 14:32:00,65.0,30.2,30.20,WNW,283,5.0,8.0,27,0.00,,CLR,0.00,VWS V14.01,2013-04-25 18:32:00,
2013-04-25 14:37:00,64.9,29.2,30.19,West,275,2.0,8.0,26,0.00,,CLR,0.00,VWS V14.01,2013-04-25 18:37:00,
2013-04-25 14:42:00,64.8,30.1,30.19,NW,309,4.0,8.0,27,0.00,,CLR,0.00,VWS V14.01,2013-04-25 18:42:00,
2013-04-25 14:47:00,65.5,30.7,30.19,NW,322,1.0,8.0,27,0.00,,CLR,0.00,VWS V14.01,2013-04-25 18:47:00,
2013-04-25 14:52:00,65.0,30.2,30.19,WNW,290,4.0,8.0,27,0.00,,CLR,0.00,VWS V14.01,2013-04-25 18:52:00,
2013-04-25 14:57:00,65.3,30.5,30.19,East,80,0.0,8.0,27,0.00,,CLR,0.00,VWS V14.01,2013-04-25 18:57:00,
2013-04-25 15:02:00,65.7,31.7,30.19,West,260,2.0,4.0,28,0.00,,CLR,0.00,VWS V14.01,2013-04-25 19:02:00,
2013-04-25 15:07:00,65.1,32.1,30.19,WNW,282,2.0,5.0,29,0.00,,CLR,0.00,VWS V14.01,2013-04-25 19:07:00,
2013-04-25 15:12:00,65.0,31.1,30.19,SW,222,5.0,8.0,28,0.00,,CLR,0.00,VWS V14.01,2013-04-25 19:12:00,
2013-04-25 15:17:00,64.3,30.5,30.19,WNW,294,2.0,9.0,28,0.00,,CLR,0.00,VWS V14.01,2013-04-25 19:17:00,
2013-04-25 15:22:00,64.8,30.1,30.19,WSW,245,3.0,9.0,27,0.00,,CLR,0.00,VWS V14.01,2013-04-25 19:22:00,
2013-04-25 15:27:00,65.4,30.6,30.19,NNW,331,2.0,9.0,27,0.00,,CLR,0.00,VWS V14.01,2013-04-25 19:27:00,
2013-04-25 15:32:00,65.9,31.9,30.19,WSW,246,0.0,7.0,28,0.00,,CLR,0.00,VWS V14.01,2013-04-25 19:32:00,
2013-04-25 15:37:00,66.7,31.7,30.19,WNW,286,2.0,7.0,27,0.00,,CLR,0.00,VWS V14.01,2013-04-25 19:37:00,
2013-04-25 15:42:00,67.7,31.6,30.19,North,355,1.0,7.0,26,0.00,,CLR,0.00,VWS V14.01,2013-04-25 19:42:00,
2013-04-25 15:47:00,68.0,31.9,30.19,NNW,346,1.0,7.0,26,0.00,,CLR,0.00,VWS V14.01,2013-04-25 19:47:00,
2013-04-25 15:52:00,67.5,31.4,30.19,West,265,2.0,10.0,26,0.00,,CLR,0.00,VWS V14.01,2013-04-25 19:52:00,
2013-04-25 15:57:00,67.5,30.5,30.19,NNW,348,2.0,10.0,25,0.00,,CLR,0.00,VWS V14.01,2013-04-25 19:57:00,
2013-04-25 16:02:00,67.0,30.0,30.19,NW,323,7.0,7.0,25,0.00,,CLR,0.00,VWS V14.01,2013-04-25 20:02:00,
2013-04-25 16:07:00,67.4,32.3,30.19,WNW,292,0.0,7.0,27,0.00,,CLR,0.00,VWS V14.01,2013-04-25 20:07:00,
2013-04-25 16:12:00,67.7,31.6,30.19,NNW,342,5.0,7.0,26,0.00,,CLR,0.00,VWS V14.01,2013-04-25 20:12:00,
2013-04-25 16:17:00,67.4,29.4,30.19,WSW,258,2.0,7.0,24,0.00,,CLR,0.00,VWS V14.01,2013-04-25 20:17:00,
2013-04-25 16:22:00,66.7,27.8,30.18,NNW,340,4.0,7.0,23,0.00,,CLR,0.00,VWS V14.01,2013-04-25 20:22:00,
2013-04-25 16:27:00,66.7,28.8,30.18,WNW,298,4.0,10.0,24,0.00,,CLR,0.00,VWS V14.01,2013-04-25 20:27:00,
2013-04-25 16:32:00,67.2,29.2,30.18,West,269,3.0,7.0,24,0.00,,CLR,0.00,VWS V14.01,2013-04-25 20:32:00,
2013-04-25 16:37:00,67.7,28.6,30.18,SW,219,3.0,7.0,23,0.00,,CLR,0.00,VWS V14.01,2013-04-25 20:37:00,
2013-04-25 16:42:00,66.7,27.8,30.18,SSW,201,6.0,10.0,23,0.00,,CLR,0.00,VWS V14.01,2013-04-25 20:42:00,
2013-04-25 16:47:00,66.2,27.3,30.18,SW,216,2.0,10.0,23,0.00,,CLR,0.00,VWS V14.01,2013-04-25 20:47:00,
2013-04-25 16:52:00,66.4,27.5,30.18,SSW,211,4.0,10.0,23,0.00,,CLR,0.00,VWS V14.01,2013-04-25 20:52:00,
2013-04-25 16:58:00,66.2,28.4,30.18,SW,232,0.0,10.0,24,0.00,,CLR,0.00,VWS V14.01,2013-04-25 20:58:00,
2013-04-25 17:03:00,66.7,28.8,30.18,North,11,1.0,3.0,24,0.00,,CLR,0.00,VWS V14.01,2013-04-25 21:03:00,
2013-04-25 17:08:00,67.0,26.9,30.18,NNW,327,3.0,4.0,22,0.00,,CLR,0.00,VWS V14.01,2013-04-25 21:08:00,
2013-04-25 17:13:00,67.2,28.2,30.18,WNW,292,0.0,5.0,23,0.00,,CLR,0.00,VWS V14.01,2013-04-25 21:13:00,
2013-04-25 17:18:00,67.7,29.6,30.18,NNW,332,1.0,8.0,24,0.00,,CLR,0.00,VWS V14.01,2013-04-25 21:18:00,
2013-04-25 17:23:00,68.2,29.0,30.18,NW,308,4.0,8.0,23,0.00,,CLR,0.00,VWS V14.01,2013-04-25 21:23:00,
2013-04-25 17:28:00,68.0,29.9,30.19,West,277,5.0,8.0,24,0.00,,CLR,0.00,VWS V14.01,2013-04-25 21:28:00,
2013-04-25 17:33:00,68.0,28.9,30.19,WSW,238,2.0,5.0,23,0.00,,CLR,0.00,VWS V14.01,2013-04-25 21:33:00,
2013-04-25 17:38:00,67.5,28.4,30.19,NW,319,4.0,6.0,23,0.00,,CLR,0.00,VWS V14.01,2013-04-25 21:38:00,
2013-04-25 17:43:00,67.4,28.4,30.18,SW,233,2.0,6.0,23,0.00,,CLR,0.00,VWS V14.01,2013-04-25 21:43:00,
2013-04-25 17:48:00,66.9,29.0,30.19,WNW,289,4.0,6.0,24,0.00,,CLR,0.00,VWS V14.01,2013-04-25 21:48:00,
2013-04-25 17:53:00,66.7,28.8,30.19,SW,236,2.0,6.0,24,0.00,,CLR,0.00,VWS V14.01,2013-04-25 21:53:00,
2013-04-25 17:58:00,66.1,29.3,30.19,West,271,2.0,7.0,25,0.00,,CLR,0.00,VWS V14.01,2013-04-25 21:58:00,
2013-04-25 18:03:00,65.6,28.9,30.19,SW,235,2.0,5.0,25,0.00,,CLR,0.00,VWS V14.01,2013-04-25 22:03:00,
2013-04-25 18:08:00,64.9,29.2,30.19,WSW,247,3.0,6.0,26,0.00,,CLR,0.00,VWS V14.01,2013-04-25 22:08:00,
2013-04-25 18:13:00,64.7,30.0,30.19,NNW,339,2.0,6.0,27,0.00,,CLR,0.00,VWS V14.01,2013-04-25 22:13:00,
2013-04-25 18:18:00,64.8,30.1,30.19,NW,313,3.0,8.0,27,0.00,,CLR,0.00,VWS V14.01,2013-04-25 22:18:00,
2013-04-25 18:23:00,64.8,29.1,30.19,SW,223,2.0,8.0,26,0.00,,CLR,0.00,VWS V14.01,2013-04-25 22:23:00,
2013-04-25 18:28:00,64.6,29.0,30.20,NW,309,2.0,8.0,26,0.00,,CLR,0.00,VWS V14.01,2013-04-25 22:28:00,
2013-04-25 18:33:00,64.6,29.9,30.20,SSW,194,2.0,4.0,27,0.00,,CLR,0.00,VWS V14.01,2013-04-25 22:33:00,
2013-04-25 18:38:00,64.2,28.6,30.20,SW,218,3.0,5.0,26,0.00,,CLR,0.00,VWS V14.01,2013-04-25 22:38:00,
2013-04-25 18:43:00,63.6,28.1,30.20,SW,221,1.0,5.0,26,0.00,,CLR,0.00,VWS V14.01,2013-04-25 22:43:00,
2013-04-25 18:48:00,63.3,28.8,30.20,NW,317,2.0,5.0,27,0.00,,CLR,0.00,VWS V14.01,2013-04-25 22:48:00,
2013-04-25 18:53:00,63.0,27.6,30.20,WNW,303,1.0,8.0,26,0.00,,CLR,0.00,VWS V14.01,2013-04-25 22:53:00,
2013-04-25 18:58:00,62.7,27.4,30.20,South,174,3.0,8.0,26,0.00,,CLR,0.00,VWS V14.01,2013-04-25 22:58:00,
2013-04-25 19:03:00,62.5,27.2,30.20,SSW,209,0.0,4.0,26,0.00,,CLR,0.00,VWS V14.01,2013-04-25 23:03:00,
2013-04-25 19:08:00,62.3,28.8,30.20,SSW,209,0.0,4.0,28,0.00,,CLR,0.00,VWS V14.01,2013-04-25 23:08:00,
2013-04-25 19:13:00,62.3,27.9,30.20,SW,219,3.0,5.0,27,0.00,,CLR,0.00,VWS V14.01,2013-04-25 23:13:00,
2013-04-25 19:18:00,62.4,28.0,30.20,WNW,289,0.0,5.0,27,0.00,,CLR,0.00,VWS V14.01,2013-04-25 23:18:00,
2013-04-25 19:23:00,62.3,27.9,30.20,West,266,0.0,5.0,27,0.00,,CLR,0.00,VWS V14.01,2013-04-25 23:23:00,
2013-04-25 19:28:00,62.0,28.5,30.21,WNW,286,0.0,5.0,28,0.00,,CLR,0.00,VWS V14.01,2013-04-25 23:28:00,
2013-04-25 19:33:00,61.7,28.3,30.21,WNW,286,0.0,0.0,28,0.00,,CLR,0.00,VWS V14.01,2013-04-25 23:33:00,
2013-04-25 19:38:00,61.4,28.0,30.21,WNW,286,0.0,0.0,28,0.00,,CLR,0.00,VWS V14.01,2013-04-25 23:38:00,
2013-04-25 19:43:00,61.1,27.8,30.21,WNW,286,0.0,0.0,28,0.00,,CLR,0.00,VWS V14.01,2013-04-25 23:43:00,
2013-04-25 19:48:00,60.8,30.0,30.21,WNW,286,0.0,1.0,31,0.00,,CLR,0.00,VWS V14.01,2013-04-25 23:48:00,
2013-04-25 19:53:00,60.3,30.3,30.21,WNW,286,0.0,1.0,32,0.00,,CLR,0.00,VWS V14.01,2013-04-25 23:53:00,
2013-04-25 19:58:00,59.6,29.7,30.21,WNW,286,0.0,1.0,32,0.00,,CLR,0.00,VWS V14.01,2013-04-25 23:58:00,
2013-04-25 20:03:00,58.8,29.8,30.21,WNW,286,0.0,1.0,33,0.00,,CLR,0.00,VWS V14.01,2013-04-26 00:03:00,
2013-04-25 20:08:00,58.0,29.8,30.22,WNW,286,0.0,1.0,34,0.00,,CLR,0.00,VWS V14.01,2013-04-26 00:08:00,
2013-04-25 20:13:00,57.4,29.3,30.22,WNW,286,0.0,1.0,34,0.00,,CLR,0.00,VWS V14.01,2013-04-26 00:13:00,
2013-04-25 20:19:00,57.0,31.0,30.22,WNW,286,0.0,1.0,37,0.00,,CLR,0.00,VWS V14.01,2013-04-26 00:19:00,
2013-04-25 20:24:00,56.7,32.0,30.23,WNW,286,0.0,1.0,39,0.00,,CLR,0.00,VWS V14.01,2013-04-26 00:24:00,
2013-04-25 20:29:00,56.1,33.3,30.23,WNW,286,0.0,1.0,42,0.00,,CLR,0.00,VWS V14.01,2013-04-26 00:29:00,
2013-04-25 20:34:00,55.6,32.9,30.23,WNW,286,0.0,0.0,42,0.00,,CLR,0.00,VWS V14.01,2013-04-26 00:34:00,
2013-04-25 20:39:00,55.1,34.2,30.23,WNW,286,0.0,0.0,45,0.00,,CLR,0.00,VWS V14.01,2013-04-26 00:39:00,
2013-04-25 20:44:00,54.7,33.8,30.23,WNW,286,0.0,0.0,45,0.00,,CLR,0.00,VWS V14.01,2013-04-26 00:44:00,
2013-04-25 20:49:00,54.3,34.0,30.24,WNW,286,0.0,0.0,46,0.00,,CLR,0.00,VWS V14.01,2013-04-26 00:49:00,
2013-04-25 20:54:00,53.9,34.2,30.24,WNW,286,0.0,0.0,47,0.00,,CLR,0.00,VWS V14.01,2013-04-26 00:54:00,
2013-04-25 20:59:00,53.6,34.4,30.24,WNW,286,0.0,0.0,48,0.00,,CLR,0.00,VWS V14.01,2013-04-26 00:59:00,
2013-04-25 21:04:00,53.3,34.7,30.25,WNW,286,0.0,0.0,49,0.00,,CLR,0.00,VWS V14.01,2013-04-26 01:04:00,
2013-04-25 21:09:00,53.0,34.4,30.25,WNW,286,0.0,0.0,49,0.00,,CLR,0.00,VWS V14.01,2013-04-26 01:09:00,
2013-04-25 21:14:00,52.5,33.9,30.25,WNW,286,0.0,0.0,49,0.00,,CLR,0.00,VWS V14.01,2013-04-26 01:14:00,
2013-04-25 21:19:00,52.1,33.5,30.25,WNW,286,0.0,0.0,49,0.00,,CLR,0.00,VWS V14.01,2013-04-26 01:19:00,
2013-04-25 21:24:00,51.8,34.3,30.25,WNW,286,0.0,0.0,51,0.00,,CLR,0.00,VWS V14.01,2013-04-26 01:24:00,
2013-04-25 21:29:00,51.6,34.6,30.26,WNW,286,0.0,0.0,52,0.00,,CLR,0.00,VWS V14.01,2013-04-26 01:29:00,
2013-04-25 21:34:00,51.2,33.7,30.26,WNW,286,0.0,0.0,51,0.00,,CLR,0.00,VWS V14.01,2013-04-26 01:34:00,
2013-04-25 21:39:00,50.9,33.9,30.26,WNW,286,0.0,0.0,52,0.00,,CLR,0.00,VWS V14.01,2013-04-26 01:39:00,
2013-04-25 21:44:00,50.6,33.6,30.26,WNW,286,0.0,0.0,52,0.00,,CLR,0.00,VWS V14.01,2013-04-26 01:44:00,
2013-04-25 21:49:00,50.3,33.8,30.26,WNW,286,0.0,0.0,53,0.00,,CLR,0.00,VWS V14.01,2013-04-26 01:49:00,
2013-04-25 21:54:00,50.0,34.5,30.26,WNW,286,0.0,0.0,55,0.00,,CLR,0.00,VWS V14.01,2013-04-26 01:54:00,
2013-04-25 21:59:00,49.6,33.7,30.27,WNW,286,0.0,0.0,54,0.00,,CLR,0.00,VWS V14.01,2013-04-26 01:59:00,
2013-04-25 22:04:00,49.3,33.8,30.27,WNW,286,0.0,0.0,55,0.00,,CLR,0.00,VWS V14.01,2013-04-26 02:04:00,
2013-04-25 22:09:00,49.0,33.5,30.27,WNW,286,0.0,0.0,55,0.00,,CLR,0.00,VWS V14.01,2013-04-26 02:09:00,
2013-04-25 22:14:00,48.7,33.3,30.27,WNW,286,0.0,0.0,55,0.00,,CLR,0.00,VWS V14.01,2013-04-26 02:14:00,
2013-04-25 22:19:00,48.5,33.5,30.27,WNW,286,0.0,0.0,56,0.00,,CLR,0.00,VWS V14.01,2013-04-26 02:19:00,
2013-04-25 22:24:00,48.2,33.3,30.27,WNW,286,0.0,0.0,56,0.00,,CLR,0.00,VWS V14.01,2013-04-26 02:24:00,
2013-04-25 22:29:00,47.9,33.4,30.28,WNW,286,1.0,1.0,57,0.00,,CLR,0.00,VWS V14.01,2013-04-26 02:29:00,
2013-04-25 22:34:00,47.6,33.1,30.28,WNW,286,0.0,1.0,57,0.00,,CLR,0.00,VWS V14.01,2013-04-26 02:34:00,
2013-04-25 22:39:00,47.3,33.7,30.28,WNW,286,0.0,1.0,59,0.00,,CLR,0.00,VWS V14.01,2013-04-26 02:39:00,
2013-04-25 22:44:00,47.1,34.4,30.28,WNW,286,0.0,1.0,61,0.00,,CLR,0.00,VWS V14.01,2013-04-26 02:44:00,
2013-04-25 22:49:00,47.0,35.1,30.28,WNW,286,0.0,1.0,63,0.00,,CLR,0.00,VWS V14.01,2013-04-26 02:49:00,
2013-04-25 22:54:00,46.9,35.0,30.28,WNW,286,0.0,1.0,63,0.00,,CLR,0.00,VWS V14.01,2013-04-26 02:54:00,
2013-04-25 22:59:00,46.8,35.3,30.28,WNW,286,0.0,1.0,64,0.00,,CLR,0.00,VWS V14.01,2013-04-26 02:59:00,
2013-04-25 23:04:00,46.7,35.2,30.28,NNE,14,0.0,1.0,64,0.00,,CLR,0.00,VWS V14.01,2013-04-26 03:04:00,
2013-04-25 23:09:00,46.6,35.5,30.28,NNE,14,0.0,1.0,65,0.00,,CLR,0.00,VWS V14.01,2013-04-26 03:09:00,
2013-04-25 23:14:00,46.5,35.8,30.28,NNE,14,0.0,1.0,66,0.00,,CLR,0.00,VWS V14.01,2013-04-26 03:14:00,
2013-04-25 23:19:00,46.4,35.3,30.28,NNE,14,0.0,1.0,65,0.00,,CLR,0.00,VWS V14.01,2013-04-26 03:19:00,
2013-04-25 23:24:00,46.3,34.8,30.28,NNE,14,0.0,1.0,64,0.00,,CLR,0.00,VWS V14.01,2013-04-26 03:24:00,
2013-04-25 23:29:00,46.1,35.0,30.28,NNE,14,0.0,1.0,65,0.00,,CLR,0.00,VWS V14.01,2013-04-26 03:29:00,
2013-04-25 23:34:00,45.8,34.3,30.28,NNE,14,0.0,1.0,64,0.00,,CLR,0.00,VWS V14.01,2013-04-26 03:34:00,
2013-04-25 23:39:00,45.6,34.5,30.28,NNE,14,0.0,1.0,65,0.00,,CLR,0.00,VWS V14.01,2013-04-26 03:39:00,
2013-04-25 23:44:00,45.3,34.6,30.28,NNE,14,0.0,1.0,66,0.00,,CLR,0.00,VWS V14.01,2013-04-26 03:44:00,
2013-04-25 23:49:00,45.1,34.4,30.28,NNE,14,0.0,1.0,66,0.00,,CLR,0.00,VWS V14.01,2013-04-26 03:49:00,
2013-04-25 23:54:00,44.9,35.0,30.28,NNE,14,0.0,1.0,68,0.00,,CLR,0.00,VWS V14.01,2013-04-26 03:54:00,
2013-04-25 23:59:00,44.7,35.2,30.28,NNE,14,0.0,1.0,69,0.00,,CLR,0.00,VWS V14.01,2013-04-26 03:59:00,